Time;durP1;ratioP1;P1;durP2;ratioP2;P2;SDS_P1;SDS_P2;PMS_P1;PMS_P2;Temp;Humidity;BMP_temperature;BMP_pressure;BME280_temperature;BME280_humidity;BME280_pressure;Samples;Min_cycle;Max_cycle;Signal;HPM_P1;HPM_P2
2022/01/04 00:00:15;;;;;;;18.55;9.05;;;;;;;2.49;44.91;98031.84;3349894;29;20162;-72
2022/01/04 00:01:57;;;;;;;13.82;8.23;;;;;;;2.53;45.08;98035.72;3349906;29;20200;-71
2022/01/04 00:03:38;;;;;;;12.88;7.75;;;;;;;2.51;45.14;98035.91;3349731;29;20053;-71
2022/01/04 00:05:19;;;;;;;15.18;8.80;;;;;;;2.52;45.05;98048.03;3349858;29;20053;-71
2022/01/04 00:06:59;;;;;;;15.32;8.85;;;;;;;2.48;45.18;98036.28;3349687;29;20065;-71
2022/01/04 00:08:40;;;;;;;12.77;8.63;;;;;;;2.49;44.96;98037.91;3349353;29;20514;-71
2022/01/04 00:10:23;;;;;;;13.25;8.40;;;;;;;2.49;45.00;98040.53;3349982;29;20509;-70
2022/01/04 00:14:03;;;;;;;14.25;8.95;;;;;;;2.48;44.97;98033.66;3335431;29;20038;-71
2022/01/04 00:15:44;;;;;;;15.88;7.68;;;;;;;2.46;44.99;98032.19;3349455;29;20048;-70
2022/01/04 00:17:25;;;;;;;14.77;7.50;;;;;;;2.46;45.01;98038.28;3348826;29;20050;-71
2022/01/04 00:19:06;;;;;;;14.50;8.55;;;;;;;2.43;45.17;98036.00;3348788;29;20069;-71
2022/01/04 00:20:47;;;;;;;11.85;7.05;;;;;;;2.43;44.89;98033.38;3336008;29;20046;-72
2022/01/04 00:22:28;;;;;;;14.30;7.50;;;;;;;2.43;45.16;98041.28;3347114;29;20049;-72
2022/01/04 00:24:09;;;;;;;11.57;7.50;;;;;;;2.42;44.98;98047.50;3349736;29;20052;-70
2022/01/04 00:25:50;;;;;;;12.70;7.80;;;;;;;2.39;45.09;98047.88;3349715;29;20048;-71
2022/01/04 00:27:30;;;;;;;16.10;8.38;;;;;;;2.39;45.16;98048.69;3349502;29;20053;-70
2022/01/04 00:29:11;;;;;;;16.60;8.32;;;;;;;2.39;45.20;98050.50;3349262;29;20073;-71
2022/01/04 00:30:52;;;;;;;10.18;6.93;;;;;;;2.39;45.17;98047.88;3349902;29;20875;-70
2022/01/04 00:32:32;;;;;;;12.45;8.30;;;;;;;2.37;45.00;98058.56;3349404;29;20054;-70
2022/01/04 00:34:13;;;;;;;11.90;7.93;;;;;;;2.35;44.87;98054.50;3349481;29;20041;-71
2022/01/04 00:35:54;;;;;;;13.93;8.05;;;;;;;2.34;44.87;98055.50;3349756;29;20144;-72
2022/01/04 00:37:34;;;;;;;13.00;8.00;;;;;;;2.34;45.02;98058.13;3349618;29;20041;-71
2022/01/04 00:39:15;;;;;;;13.38;8.10;;;;;;;2.31;45.09;98053.25;3349544;29;20057;-71
2022/01/04 00:40:56;;;;;;;12.85;7.60;;;;;;;2.30;45.02;98059.50;3349709;29;20456;-72
2022/01/04 00:42:37;;;;;;;13.00;9.00;;;;;;;2.30;45.06;98059.50;3349525;29;20072;-70
2022/01/04 00:44:17;;;;;;;19.98;8.50;;;;;;;2.28;45.05;98061.50;3349244;29;20050;-72
2022/01/04 00:45:59;;;;;;;11.68;8.15;;;;;;;2.29;45.17;98063.13;3335654;29;20050;-70
2022/01/04 00:47:46;;;;;;;16.70;8.77;;;;;;;2.30;45.11;98068.22;3347141;29;20583;-71
2022/01/04 00:49:26;;;;;;;13.48;8.10;;;;;;;2.32;45.02;98062.75;3349325;29;20505;-71
2022/01/04 00:51:09;;;;;;;11.60;8.07;;;;;;;2.31;45.23;98061.13;3349502;29;20049;-72
2022/01/04 00:52:50;;;;;;;11.85;6.93;;;;;;;2.32;45.00;98068.00;3348924;29;20128;-70
2022/01/04 00:54:33;;;;;;;10.70;7.45;;;;;;;2.32;45.01;98070.63;3349454;29;20091;-71
2022/01/04 00:56:14;;;;;;;12.68;8.25;;;;;;;2.32;45.20;98070.63;3349735;29;20045;-71
2022/01/04 00:57:55;;;;;;;15.88;8.98;;;;;;;2.31;45.24;98072.44;3349375;29;20045;-72
2022/01/04 00:59:36;;;;;;;11.30;7.63;;;;;;;2.30;44.90;98070.03;3349292;29;20505;-71
2022/01/04 01:01:17;;;;;;;11.48;8.45;;;;;;;2.27;44.93;98067.72;3349638;29;20073;-71
2022/01/04 01:02:58;;;;;;;13.27;7.72;;;;;;;2.27;45.07;98070.38;3350207;29;20077;-70
2022/01/04 01:04:39;;;;;;;14.70;8.63;;;;;;;2.27;45.10;98073.81;3350912;29;20053;-71
2022/01/04 01:06:20;;;;;;;15.57;8.82;;;;;;;2.25;45.12;98072.38;3350989;29;20126;-71
2022/01/04 01:08:02;;;;;;;19.17;8.67;;;;;;;2.26;45.01;98068.75;3351028;29;20046;-71
2022/01/04 01:09:59;;;;;;;15.55;8.50;;;;;;;2.28;45.05;98069.38;3339084;29;20394;-72
2022/01/04 01:11:39;;;;;;;12.43;7.43;;;;;;;2.29;45.05;98068.38;3352415;29;20041;-70
2022/01/04 01:13:20;;;;;;;16.70;8.40;;;;;;;2.29;45.02;98073.63;3351736;29;20063;-71
2022/01/04 01:15:03;;;;;;;16.15;7.78;;;;;;;2.28;45.09;98079.91;3351761;29;20483;-71
2022/01/04 01:16:44;;;;;;;12.10;7.95;;;;;;;2.28;45.01;98082.53;3351837;29;20041;-71
2022/01/04 01:18:24;;;;;;;14.75;8.73;;;;;;;2.26;45.06;98079.25;3351654;29;20045;-72
2022/01/04 01:20:07;;;;;;;13.35;8.50;;;;;;;2.27;45.17;98080.88;3351451;29;20057;-71
2022/01/04 01:21:48;;;;;;;15.57;8.45;;;;;;;2.26;45.04;98081.88;3351070;29;20056;-71
2022/01/04 01:23:29;;;;;;;12.75;8.25;;;;;;;2.23;44.92;98079.63;3337859;29;20533;-70
2022/01/04 01:25:12;;;;;;;26.10;8.45;;;;;;;2.24;44.92;98081.25;3348996;29;20102;-72
2022/01/04 01:26:53;;;;;;;12.25;7.68;;;;;;;2.25;45.00;98088.16;3351663;29;20050;-71
2022/01/04 01:28:35;;;;;;;13.73;7.97;;;;;;;2.24;45.19;98076.78;3351430;29;20488;-71
2022/01/04 01:30:16;;;;;;;13.80;8.65;;;;;;;2.23;44.89;98074.38;3351540;29;20060;-70
2022/01/04 01:31:57;;;;;;;14.05;8.00;;;;;;;2.24;45.07;98071.53;3350839;29;20898;-70
2022/01/04 01:33:38;;;;;;;13.00;8.75;;;;;;;2.25;45.18;98077.63;3351600;29;20398;-71
2022/01/04 01:35:19;;;;;;;15.75;8.38;;;;;;;2.24;44.89;98076.00;3351426;29;20060;-71
2022/01/04 01:36:59;;;;;;;16.85;9.75;;;;;;;2.23;45.02;98074.38;3351354;29;20529;-71
2022/01/04 01:38:40;;;;;;;14.75;8.90;;;;;;;2.22;45.10;98072.72;3351292;29;20053;-70
2022/01/04 01:40:21;;;;;;;14.52;8.40;;;;;;;2.18;45.03;98070.47;3351367;29;20068;-70
2022/01/04 01:42:02;;;;;;;13.23;8.18;;;;;;;2.22;45.04;98072.72;3350796;29;20037;-71
2022/01/04 01:43:44;;;;;;;13.85;8.70;;;;;;;2.23;45.14;98074.38;3351538;29;20110;-71
2022/01/04 01:45:25;;;;;;;;;;;;;;;2.33;45.11;98074.91;3351787;29;20065;-71
2022/01/04 01:47:06;;;;;;;16.40;8.57;;;;;;;2.25;44.92;98080.25;3351281;29;19920;-71
2022/01/04 01:48:47;;;;;;;12.63;7.70;;;;;;;2.22;45.10;98077.97;3351516;29;20049;-71
2022/01/04 01:50:28;;;;;;;13.68;8.85;;;;;;;2.21;45.23;98074.53;3350457;29;20052;-70
2022/01/04 01:52:09;;;;;;;14.43;8.80;;;;;;;2.20;45.11;98074.72;3337850;29;20050;-71
2022/01/04 01:53:50;;;;;;;14.07;8.75;;;;;;;2.19;45.02;98076.53;3348779;29;20567;-71
2022/01/04 01:55:31;;;;;;;11.43;8.40;;;;;;;2.22;45.20;98080.59;3351290;29;20041;-71
2022/01/04 01:57:12;;;;;;;15.93;9.02;;;;;;;2.21;45.08;98076.34;3351480;29;20137;-71
2022/01/04 01:58:53;;;;;;;15.90;9.82;;;;;;;2.20;45.08;98074.72;3351428;29;20099;-71
2022/01/04 02:00:33;;;;;;;14.52;9.65;;;;;;;2.20;45.25;98074.72;3351314;29;20096;-72
2022/01/04 02:02:14;;;;;;;11.80;8.35;;;;;;;2.20;45.01;98074.72;3351156;29;20045;-72
2022/01/04 02:03:55;;;;;;;17.17;10.93;;;;;;;2.20;45.30;98080.00;3351210;29;20041;-71
2022/01/04 02:05:36;;;;;;;13.15;9.43;;;;;;;2.20;45.01;98080.00;3351058;29;20045;-70
2022/01/04 02:07:19;;;;;;;17.42;10.18;;;;;;;2.18;45.37;98075.72;3351183;29;20045;-71
2022/01/04 02:09:00;;;;;;;18.83;10.30;;;;;;;2.15;45.21;98075.28;3351338;29;20537;-71
2022/01/04 02:10:42;;;;;;;18.55;10.93;;;;;;;2.10;45.02;98083.69;3351115;29;20046;-71
2022/01/04 02:12:22;;;;;;;18.00;10.15;;;;;;;2.08;45.05;98085.66;3350991;29;20041;-71
2022/01/04 02:14:03;;;;;;;16.40;10.25;;;;;;;2.04;45.08;98086.19;3337209;29;20056;-72
2022/01/04 02:15:44;;;;;;;16.52;11.60;;;;;;;1.99;45.05;98089.41;3347717;29;20102;-71
2022/01/04 02:17:25;;;;;;;18.70;11.00;;;;;;;1.95;45.06;98077.59;3350873;29;20055;-71
2022/01/04 02:19:07;;;;;;;18.75;11.68;;;;;;;1.87;45.15;98075.06;3350911;29;20597;-70
2022/01/04 02:20:48;;;;;;;19.70;11.43;;;;;;;1.86;45.25;98089.16;3350326;29;20045;-71
2022/01/04 02:22:29;;;;;;;17.70;11.23;;;;;;;1.84;45.12;98078.03;3350284;29;20045;-70
2022/01/04 02:24:09;;;;;;;19.27;11.60;;;;;;;1.78;45.27;98082.19;3337146;29;20094;-71
2022/01/04 02:25:50;;;;;;;22.90;11.90;;;;;;;1.75;45.38;98077.28;3348322;29;20053;-71
2022/01/04 02:27:35;;;;;;;23.05;11.85;;;;;;;1.75;45.38;98078.09;3337043;29;20046;-71
2022/01/04 02:29:16;;;;;;;20.30;11.35;;;;;;;1.71;45.06;98074.22;3348580;29;20050;-71
2022/01/04 02:30:56;;;;;;;19.65;11.50;;;;;;;1.73;45.29;98087.19;3350761;29;20076;-71
2022/01/04 02:32:37;;;;;;;24.48;13.15;;;;;;;1.69;45.24;98084.06;3350828;29;20056;-71
2022/01/04 02:34:18;;;;;;;22.83;12.30;;;;;;;1.70;45.47;98090.13;3350954;29;20060;-71
2022/01/04 02:35:59;;;;;;;20.70;12.00;;;;;;;1.69;45.44;98089.31;3350910;29;20487;-70
2022/01/04 02:37:40;;;;;;;19.73;12.05;;;;;;;1.69;45.40;98094.56;3350351;29;20322;-71
2022/01/04 02:39:20;;;;;;;23.33;13.55;;;;;;;1.68;45.43;98092.13;3337022;29;20062;-70
2022/01/04 02:41:01;;;;;;;19.10;12.75;;;;;;;1.67;45.30;98099.19;3347680;29;20049;-72
2022/01/04 02:42:43;;;;;;;19.67;11.90;;;;;;;1.66;45.36;98094.94;3350946;29;20057;-71
2022/01/04 02:44:24;;;;;;;20.58;13.15;;;;;;;1.66;45.20;98099.38;3351912;29;20552;-71
2022/01/04 02:46:04;;;;;;;23.70;13.07;;;;;;;1.62;45.30;98098.88;3350931;29;20106;-71
2022/01/04 02:47:45;;;;;;;21.15;12.52;;;;;;;1.61;45.44;98099.09;3351018;29;20073;-71
2022/01/04 02:49:26;;;;;;;20.92;12.30;;;;;;;1.62;45.34;98109.41;3350659;29;20037;-71
2022/01/04 02:51:06;;;;;;;20.67;12.30;;;;;;;1.59;45.28;98104.50;3350681;29;20065;-71
2022/01/04 02:52:48;;;;;;;16.35;10.70;;;;;;;1.59;45.57;98101.06;3350631;29;20585;-71
2022/01/04 02:54:28;;;;;;;21.77;12.13;;;;;;;1.59;45.35;98101.06;3350558;29;20083;-71
2022/01/04 02:56:11;;;;;;;18.02;11.45;;;;;;;1.58;45.31;98102.06;3350066;29;20417;-71
2022/01/04 02:57:51;;;;;;;22.25;13.18;;;;;;;1.55;45.47;98103.25;3350494;29;20049;-71
2022/01/04 02:59:32;;;;;;;22.92;12.45;;;;;;;1.54;45.43;98106.84;3350335;29;20151;-71
2022/01/04 03:01:12;;;;;;;22.17;12.13;;;;;;;1.52;45.36;98100.94;3350461;29;20073;-71
2022/01/04 03:02:53;;;;;;;21.13;11.95;;;;;;;1.52;45.38;98100.94;3350197;29;20056;-72
2022/01/04 03:04:34;;;;;;;23.95;12.73;;;;;;;1.51;45.44;98107.19;3350266;29;20462;-72
2022/01/04 03:06:14;;;;;;;27.05;13.13;;;;;;;1.51;45.45;98107.19;3350335;29;20524;-72
2022/01/04 03:07:55;;;;;;;23.35;12.38;;;;;;;1.50;45.63;98118.69;3350418;29;20049;-71
2022/01/04 03:09:36;;;;;;;21.42;11.63;;;;;;;1.49;45.53;98106.56;3350441;29;20050;-72
2022/01/04 03:11:17;;;;;;;23.17;13.98;;;;;;;1.48;45.72;98110.19;3350297;29;20042;-72
2022/01/04 03:12:58;;;;;;;22.80;13.02;;;;;;;1.49;45.49;98119.66;3350244;29;20101;-69
2022/01/04 03:14:38;;;;;;;18.85;11.45;;;;;;;1.48;45.83;98118.88;3350275;29;20082;-71
2022/01/04 03:16:19;;;;;;;19.63;12.05;;;;;;;1.50;45.51;98116.88;3350345;29;20047;-71
2022/01/04 03:18:00;;;;;;;21.13;12.93;;;;;;;1.51;45.54;98121.13;3350147;29;20125;-71
2022/01/04 03:19:40;;;;;;;24.58;13.48;;;;;;;1.51;45.65;98120.31;3350298;29;20084;-71
2022/01/04 03:21:21;;;;;;;21.40;12.77;;;;;;;1.50;45.62;98121.31;3335838;29;20414;-71
2022/01/04 03:23:02;;;;;;;22.63;12.80;;;;;;;1.47;45.87;98129.53;3347371;29;20097;-71
2022/01/04 03:24:43;;;;;;;23.08;12.75;;;;;;;1.47;45.78;98126.91;3350283;29;20037;-71
2022/01/04 03:26:24;;;;;;;23.25;12.63;;;;;;;1.45;45.68;98121.03;3349385;29;20091;-71
2022/01/04 03:28:05;;;;;;;20.17;12.63;;;;;;;1.47;45.71;98126.91;3350019;29;20049;-70
2022/01/04 03:29:46;;;;;;;21.33;12.70;;;;;;;1.46;45.77;98127.91;3336505;29;20818;-70
2022/01/04 03:31:30;;;;;;;20.75;12.48;;;;;;;1.44;45.59;98127.25;3346998;29;20064;-71
2022/01/04 03:33:10;;;;;;;25.98;14.80;;;;;;;1.45;45.53;98126.28;3335811;29;20597;-70
2022/01/04 03:34:51;;;;;;;22.00;13.95;;;;;;;1.44;45.96;98129.88;3347479;29;20083;-72
2022/01/04 03:36:32;;;;;;;33.17;14.32;;;;;;;1.41;45.83;98125.78;3350062;29;20125;-71
2022/01/04 03:38:12;;;;;;;24.38;14.27;;;;;;;1.40;45.92;98133.88;3336310;29;20079;-72
2022/01/04 03:39:53;;;;;;;27.45;14.43;;;;;;;1.37;45.86;98128.94;3346387;29;20552;-73
2022/01/04 03:41:38;;;;;;;21.67;13.75;;;;;;;1.37;45.74;98136.81;3349636;29;20509;-71
2022/01/04 03:43:20;;;;;;;29.75;14.75;;;;;;;1.37;45.91;98137.66;3349988;29;20052;-72
2022/01/04 03:45:00;;;;;;;25.48;13.57;;;;;;;1.35;45.64;98134.38;3349905;29;20108;-70
2022/01/04 03:46:41;;;;;;;27.50;15.93;;;;;;;1.35;45.80;98138.81;3350089;29;20470;-72
2022/01/04 03:48:23;;;;;;;22.83;13.60;;;;;;;1.35;45.80;98136.19;3349940;29;20049;-71
2022/01/04 03:50:04;;;;;;;24.60;13.80;;;;;;;1.34;45.90;98137.16;3349761;29;20041;-70
2022/01/04 03:51:45;;;;;;;25.07;14.27;;;;;;;1.33;45.99;98140.78;3349813;29;20050;-70
2022/01/04 03:53:26;;;;;;;26.25;14.73;;;;;;;1.33;45.83;98138.16;3349925;29;20302;-71
2022/01/04 03:55:08;;;;;;;23.80;13.52;;;;;;;1.29;45.85;98137.69;3350269;29;20072;-70
2022/01/04 03:56:50;;;;;;;22.42;13.52;;;;;;;1.29;46.03;98135.06;3348643;29;20135;-70
2022/01/04 03:58:31;;;;;;;26.67;13.32;;;;;;;1.31;45.89;98140.97;3344955;29;20042;-73
2022/01/04 04:00:13;;;;;;;23.67;15.15;;;;;;;1.27;46.14;98144.94;3337761;29;20041;-71
2022/01/04 04:01:54;;;;;;;24.95;14.40;;;;;;;1.30;46.04;98153.25;3336443;29;20574;-71
2022/01/04 04:03:36;;;;;;;22.83;13.27;;;;;;;1.28;45.92;98143.94;3322048;29;20038;-71
2022/01/04 04:05:17;;;;;;;23.35;14.10;;;;;;;1.32;45.95;98150.47;3340073;29;20057;-70
2022/01/04 04:06:57;;;;;;;21.23;12.55;;;;;;;1.30;46.14;98148.03;3333596;29;20045;-72
2022/01/04 04:08:40;;;;;;;19.95;12.43;;;;;;;1.29;45.88;98143.78;3345550;29;20101;-72
2022/01/04 04:10:21;;;;;;;24.23;13.85;;;;;;;1.31;46.12;98144.38;3336488;29;20402;-71
2022/01/04 04:12:03;;;;;;;25.13;13.30;;;;;;;1.29;46.27;98146.41;3322930;29;20086;-71
2022/01/04 04:13:46;;;;;;;;;;;;;;;1.43;46.13;98146.63;3334031;29;20059;-70
2022/01/04 04:15:26;;;;;;;17.92;11.80;;;;;;;1.36;45.84;98145.69;3336483;29;19917;-70
2022/01/04 04:17:08;;;;;;;21.48;12.77;;;;;;;1.35;45.93;98150.13;3343735;29;20048;-71
2022/01/04 04:18:49;;;;;;;19.98;12.27;;;;;;;1.34;45.98;98150.28;3345374;29;20145;-71
2022/01/04 04:20:29;;;;;;;23.77;12.27;;;;;;;1.34;46.10;98155.53;3346265;29;20097;-69
2022/01/04 04:22:10;;;;;;;22.15;13.10;;;;;;;1.34;46.06;98142.41;3336950;29;20042;-71
2022/01/04 04:23:51;;;;;;;17.02;10.50;;;;;;;1.32;46.37;98147.84;3336947;29;20120;-70
2022/01/04 04:25:33;;;;;;;16.50;11.48;;;;;;;1.30;46.20;98145.41;3337255;29;20429;-72
2022/01/04 04:27:14;;;;;;;20.02;11.75;;;;;;;1.30;46.36;98141.97;3345631;29;20069;-71
2022/01/04 04:28:56;;;;;;;16.92;11.27;;;;;;;1.31;46.34;98144.38;3342755;29;20132;-70
2022/01/04 04:30:37;;;;;;;19.65;11.90;;;;;;;1.28;46.21;98144.75;3346775;29;20113;-71
2022/01/04 04:32:19;;;;;;;16.60;11.02;;;;;;;1.29;46.28;98145.56;3347865;29;20057;-71
2022/01/04 04:33:59;;;;;;;19.60;10.90;;;;;;;1.29;46.11;98146.41;3348067;29;20041;-71
2022/01/04 04:35:40;;;;;;;17.60;11.13;;;;;;;1.28;46.33;98138.69;3348142;29;20087;-71
2022/01/04 04:37:21;;;;;;;20.70;11.60;;;;;;;1.24;46.57;98150.50;3347718;29;20104;-70
2022/01/04 04:39:03;;;;;;;19.25;11.18;;;;;;;1.25;46.25;98152.16;3347859;29;20052;-71
2022/01/04 04:40:43;;;;;;;18.97;12.00;;;;;;;1.23;46.58;98152.31;3348099;29;20041;-71
2022/01/04 04:42:24;;;;;;;18.10;11.88;;;;;;;1.23;46.22;98147.06;3347732;29;20134;-70
2022/01/04 04:44:05;;;;;;;16.98;11.38;;;;;;;1.23;46.54;98152.31;3348319;29;20098;-72
2022/01/04 04:45:48;;;;;;;22.45;11.25;;;;;;;1.22;46.36;98153.31;3336821;29;20624;-72
2022/01/04 04:47:29;;;;;;;30.05;12.35;;;;;;;1.18;46.32;98146.78;3347188;29;20046;-72
2022/01/04 04:49:10;;;;;;;18.20;11.83;;;;;;;1.20;46.55;98144.00;3350367;29;20049;-71
2022/01/04 04:50:50;;;;;;;16.95;11.50;;;;;;;1.20;46.36;98151.84;3336537;29;20037;-71
2022/01/04 04:52:33;;;;;;;22.80;13.40;;;;;;;1.21;46.39;98150.84;3334252;29;20106;-72
2022/01/04 04:54:14;;;;;;;18.40;11.77;;;;;;;1.19;46.57;98148.41;3337793;29;20145;-70
2022/01/04 04:55:55;;;;;;;20.38;10.75;;;;;;;1.19;46.40;98153.66;3338603;29;20069;-70
2022/01/04 04:57:38;;;;;;;19.63;10.60;;;;;;;1.19;46.71;98153.66;3337728;29;20045;-70
2022/01/04 04:59:18;;;;;;;16.30;10.80;;;;;;;1.20;46.51;98165.78;3338355;29;20053;-71
2022/01/04 05:00:59;;;;;;;19.67;11.90;;;;;;;1.19;46.31;98164.16;3339057;29;20069;-70
2022/01/04 05:02:41;;;;;;;17.23;11.10;;;;;;;1.14;46.64;98158.63;3352549;29;20049;-71
2022/01/04 05:04:22;;;;;;;19.50;11.35;;;;;;;1.16;46.73;98172.38;3351254;29;20049;-71
2022/01/04 05:06:02;;;;;;;23.40;10.40;;;;;;;1.14;46.64;98174.34;3351381;29;20045;-72
2022/01/04 05:07:43;;;;;;;17.08;10.88;;;;;;;1.14;46.72;98170.94;3351196;29;20041;-71
2022/01/04 05:09:24;;;;;;;20.10;11.38;;;;;;;1.10;46.74;98175.69;3351359;29;20642;-71
2022/01/04 05:11:05;;;;;;;17.25;10.00;;;;;;;1.10;46.66;98180.94;3351304;29;20125;-71
2022/01/04 05:12:45;;;;;;;15.32;8.88;;;;;;;1.09;46.59;98179.31;3344567;29;20041;-71
2022/01/04 05:14:26;;;;;;;17.50;9.88;;;;;;;1.07;46.90;98176.84;3351479;29;20049;-71
2022/01/04 05:16:07;;;;;;;18.88;10.05;;;;;;;1.03;46.80;98177.34;3351184;29;20131;-71
2022/01/04 05:17:47;;;;;;;20.15;10.23;;;;;;;1.02;46.94;98176.53;3351124;29;20042;-71
2022/01/04 05:19:28;;;;;;;19.33;9.43;;;;;;;1.04;46.85;98186.88;3350922;29;20085;-71
2022/01/04 05:21:09;;;;;;;11.93;8.48;;;;;;;1.02;46.83;98179.16;3350954;29;20049;-71
2022/01/04 05:22:49;;;;;;;18.77;9.65;;;;;;;1.01;46.70;98185.41;3351456;29;20058;-70
2022/01/04 05:24:30;;;;;;;16.45;9.88;;;;;;;1.01;47.04;98185.41;3350686;29;20535;-71
2022/01/04 05:26:11;;;;;;;14.18;10.23;;;;;;;1.02;46.71;98187.03;3350570;29;20515;-70
2022/01/04 05:27:51;;;;;;;16.48;9.88;;;;;;;1.02;46.65;98186.22;3350775;29;20081;-70
2022/01/04 05:29:32;;;;;;;16.60;10.68;;;;;;;0.98;46.56;98184.91;3350961;29;20421;-70
2022/01/04 05:31:14;;;;;;;18.25;11.45;;;;;;;0.99;46.79;98182.13;3351230;29;20061;-70
2022/01/04 05:32:54;;;;;;;17.23;10.15;;;;;;;1.01;46.52;98185.41;3351434;29;20494;-71
2022/01/04 05:34:35;;;;;;;15.48;9.93;;;;;;;1.00;46.52;98183.75;3350887;29;20044;-70
2022/01/04 05:36:16;;;;;;;20.08;12.18;;;;;;;1.00;46.45;98185.56;3350705;29;20143;-70
2022/01/04 05:37:56;;;;;;;19.20;11.85;;;;;;;0.98;46.49;98193.63;3350836;29;20042;-70
2022/01/04 05:39:37;;;;;;;16.83;10.65;;;;;;;0.98;46.70;98180.50;3350406;29;20144;-71
2022/01/04 05:41:18;;;;;;;19.42;11.15;;;;;;;0.99;46.61;98192.63;3350985;29;20120;-71
2022/01/04 05:42:58;;;;;;;18.38;11.55;;;;;;;0.99;47.04;98186.56;3351075;29;20097;-70
2022/01/04 05:44:39;;;;;;;16.42;10.95;;;;;;;1.00;46.95;98188.19;3350783;29;20517;-70
2022/01/04 05:46:20;;;;;;;16.35;10.20;;;;;;;0.98;46.73;98184.91;3323809;29;20046;-71
2022/01/04 05:48:00;;;;;;;15.85;10.65;;;;;;;0.99;46.89;98197.06;3345749;29;20077;-72
2022/01/04 05:49:41;;;;;;;17.27;10.10;;;;;;;0.98;46.80;98196.25;3350282;29;20409;-71
2022/01/04 05:51:22;;;;;;;15.48;10.45;;;;;;;1.00;46.91;98193.44;3350584;29;20049;-71
2022/01/04 05:53:02;;;;;;;14.73;9.45;;;;;;;1.00;46.68;98193.44;3350755;29;20041;-71
2022/01/04 05:54:43;;;;;;;17.42;9.00;;;;;;;0.99;46.45;98190.00;3350337;29;20128;-71
2022/01/04 05:56:24;;;;;;;15.65;9.35;;;;;;;1.00;46.95;98194.25;3350580;29;20041;-71
2022/01/04 05:58:05;;;;;;;12.68;8.90;;;;;;;1.01;46.63;98195.09;3350838;29;20068;-72
2022/01/04 05:59:45;;;;;;;15.13;8.98;;;;;;;0.97;46.97;98185.91;3349613;29;20052;-71
2022/01/04 06:01:26;;;;;;;14.90;9.10;;;;;;;1.02;46.88;98197.53;3350923;29;20076;-71
2022/01/04 06:03:07;;;;;;;16.50;8.48;;;;;;;1.02;47.09;98197.53;3350747;29;20053;-71
2022/01/04 06:04:48;;;;;;;17.63;8.95;;;;;;;1.04;46.66;98197.38;3350902;29;20037;-71
2022/01/04 06:06:28;;;;;;;13.70;8.73;;;;;;;1.06;46.87;98198.00;3350164;29;20046;-72
2022/01/04 06:08:10;;;;;;;13.52;8.50;;;;;;;1.04;47.00;98198.16;3350358;29;20049;-71
2022/01/04 06:09:53;;;;;;;;;;;;;;;1.17;46.68;98209.94;3350740;29;20034;-70
2022/01/04 06:11:56;;;;;;;11.55;8.38;;;;;;;1.11;46.54;98205.34;3350568;29;19923;-71
2022/01/04 06:15:53;;;;;;;15.23;9.15;;;;;;;1.07;46.61;98212.75;3311377;29;20587;-70
2022/01/04 06:17:41;;;;;;;16.75;9.63;;;;;;;1.06;46.60;98216.38;3310993;29;20177;-70
2022/01/04 06:19:22;;;;;;;15.27;9.52;;;;;;;1.05;46.83;98218.16;3310429;29;22109;-71
2022/01/04 06:21:05;;;;;;;14.45;9.15;;;;;;;1.04;46.54;98220.97;3326606;29;20197;-71
2022/01/04 06:22:46;;;;;;;13.35;9.55;;;;;;;1.05;46.86;98222.59;3341466;29;20141;-71
2022/01/04 06:24:26;;;;;;;17.83;9.65;;;;;;;1.05;46.85;98230.47;3348264;29;20042;-71
2022/01/04 06:26:07;;;;;;;10.68;7.75;;;;;;;1.03;46.86;98229.81;3350169;29;20140;-72
2022/01/04 06:27:51;;;;;;;19.42;8.90;;;;;;;1.07;47.08;98229.31;3350611;29;20049;-72
2022/01/04 06:29:31;;;;;;;12.73;8.50;;;;;;;1.07;46.94;98231.94;3336364;29;20038;-70
2022/01/04 06:31:12;;;;;;;17.95;8.63;;;;;;;1.09;46.83;98232.59;3346615;29;20564;-71
2022/01/04 06:32:53;;;;;;;14.25;8.82;;;;;;;1.07;46.70;98231.94;3336838;29;20099;-71
2022/01/04 06:34:35;;;;;;;13.43;8.95;;;;;;;1.11;46.86;98235.06;3347504;29;20056;-72
2022/01/04 06:36:15;;;;;;;13.18;8.77;;;;;;;1.10;46.83;98241.25;3350281;29;20052;-70
2022/01/04 06:37:56;;;;;;;15.30;7.78;;;;;;;1.14;46.96;98245.19;3350532;29;20071;-72
2022/01/04 06:39:37;;;;;;;12.38;9.15;;;;;;;1.14;46.85;98242.56;3349721;29;20070;-71
2022/01/04 06:41:17;;;;;;;16.02;9.18;;;;;;;1.17;46.81;98241.41;3350147;29;20045;-71
2022/01/04 06:42:58;;;;;;;16.13;9.85;;;;;;;1.17;47.10;98247.47;3349659;29;20053;-72
2022/01/04 06:44:41;;;;;;;14.25;8.63;;;;;;;1.12;47.00;98244.53;3350300;29;20359;-70
2022/01/04 06:46:23;;;;;;;12.35;8.68;;;;;;;1.19;46.60;98253.38;3350096;29;20038;-70
2022/01/04 06:48:04;;;;;;;13.88;8.95;;;;;;;1.20;46.71;98260.25;3350114;29;20395;-71
2022/01/04 06:49:45;;;;;;;13.07;8.80;;;;;;;1.21;47.11;98263.69;3349815;29;20433;-71
2022/01/04 06:51:25;;;;;;;14.70;8.38;;;;;;;1.21;46.92;98264.50;3349297;29;20053;-71
2022/01/04 06:53:06;;;;;;;14.27;8.18;;;;;;;1.22;47.02;98270.59;3349658;29;20078;-70
2022/01/04 06:54:47;;;;;;;11.90;7.97;;;;;;;1.21;46.75;98269.75;3350243;29;20066;-72
2022/01/04 06:56:27;;;;;;;16.95;8.90;;;;;;;1.21;47.03;98272.38;3349895;29;20096;-72
2022/01/04 06:58:08;;;;;;;14.57;9.45;;;;;;;1.17;47.04;98262.41;3349850;29;20154;-71
2022/01/04 06:59:49;;;;;;;16.55;9.68;;;;;;;1.22;47.14;98276.66;3349739;29;20132;-71
2022/01/04 07:01:30;;;;;;;15.70;10.15;;;;;;;1.21;46.77;98271.56;3336202;29;20045;-71
2022/01/04 07:03:10;;;;;;;15.77;8.77;;;;;;;1.23;46.97;98272.22;3346949;29;20510;-71
2022/01/04 07:04:51;;;;;;;15.00;10.48;;;;;;;1.21;46.96;98269.75;3336665;29;20070;-71
2022/01/04 07:06:33;;;;;;;15.73;9.43;;;;;;;1.25;46.77;98284.19;3332255;29;20075;-72
2022/01/04 07:08:13;;;;;;;18.80;10.38;;;;;;;1.26;46.96;98274.50;3346042;29;20528;-71
2022/01/04 07:09:54;;;;;;;16.25;9.85;;;;;;;1.27;46.70;98279.59;3350036;29;20042;-71
2022/01/04 07:11:35;;;;;;;17.30;11.30;;;;;;;1.26;46.83;98277.94;3348874;29;20045;-72
2022/01/04 07:13:16;;;;;;;17.77;12.15;;;;;;;1.25;47.04;98275.50;3350002;29;20038;-71
2022/01/04 07:14:57;;;;;;;16.85;10.68;;;;;;;1.28;46.52;98286.47;3350143;29;20501;-71
2022/01/04 07:16:38;;;;;;;19.15;10.55;;;;;;;1.29;46.84;98282.03;3349399;29;20045;-73
2022/01/04 07:18:18;;;;;;;17.17;10.55;;;;;;;1.29;46.96;98282.03;3349666;29;20045;-71
2022/01/04 07:19:59;;;;;;;16.75;10.63;;;;;;;1.30;46.87;98284.50;3349906;29;20513;-70
2022/01/04 07:21:40;;;;;;;16.05;10.23;;;;;;;1.31;47.11;98283.50;3349428;29;20061;-71
2022/01/04 07:23:22;;;;;;;17.88;10.68;;;;;;;1.29;46.68;98275.00;3349402;29;20425;-72
2022/01/04 07:25:04;;;;;;;15.65;10.07;;;;;;;1.28;47.00;98272.53;3335822;29;20049;-71
2022/01/04 07:26:44;;;;;;;18.70;11.40;;;;;;;1.29;46.74;98280.25;3347211;29;20041;-72
2022/01/04 07:28:25;;;;;;;17.70;10.85;;;;;;;1.35;46.63;98291.06;3348864;29;20137;-71
2022/01/04 07:30:06;;;;;;;22.27;10.93;;;;;;;1.32;47.00;98284.34;3344931;29;20048;-71
2022/01/04 07:31:47;;;;;;;17.63;10.88;;;;;;;1.34;46.99;98279.72;3349805;29;20052;-73
2022/01/04 07:33:28;;;;;;;16.63;9.38;;;;;;;1.37;47.03;98283.78;3349340;29;20038;-72
2022/01/04 07:35:09;;;;;;;20.98;12.60;;;;;;;1.36;47.10;98277.75;3349558;29;20045;-71
2022/01/04 07:36:49;;;;;;;24.33;12.13;;;;;;;1.40;47.11;98283.47;3349494;29;20044;-72
2022/01/04 07:38:30;;;;;;;20.00;11.30;;;;;;;1.38;46.95;98285.44;3349030;29;20038;-71
2022/01/04 07:40:11;;;;;;;18.02;10.68;;;;;;;1.41;47.11;98282.47;3335574;29;20062;-71
2022/01/04 07:41:52;;;;;;;18.05;10.55;;;;;;;1.44;46.88;98288.19;3346506;29;20038;-72
2022/01/04 07:43:33;;;;;;;14.55;9.65;;;;;;;1.47;46.86;98290.50;3349515;29;20041;-72
2022/01/04 07:45:14;;;;;;;16.98;10.90;;;;;;;1.51;46.83;98293.59;3349824;29;20144;-72
2022/01/04 07:46:55;;;;;;;16.23;11.18;;;;;;;1.50;46.78;98294.59;3344079;29;20175;-72
2022/01/04 07:48:35;;;;;;;19.95;10.88;;;;;;;1.50;46.94;98300.66;3349711;29;20034;-72
2022/01/04 07:50:17;;;;;;;17.67;10.32;;;;;;;1.54;46.97;98309.00;3336212;29;20140;-71
2022/01/04 07:51:58;;;;;;;17.23;10.68;;;;;;;1.55;46.79;98302.78;3347169;29;20052;-71
2022/01/04 07:53:38;;;;;;;19.92;10.50;;;;;;;1.56;46.72;98312.28;3348848;29;20037;-72
2022/01/04 07:55:19;;;;;;;18.77;9.82;;;;;;;1.54;46.95;98306.38;3349988;29;20105;-71
2022/01/04 07:57:00;;;;;;;18.75;10.98;;;;;;;1.53;46.80;98310.81;3350226;29;20105;-71